Time;durP1;ratioP1;P1;durP2;ratioP2;P2;SDS_P1;SDS_P2;PMS_P1;PMS_P2;Temp;Humidity;BMP_temperature;BMP_pressure;BME280_temperature;BME280_humidity;BME280_pressure;Samples;Min_cycle;Max_cycle;Signal;HPM_P1;HPM_P2
2021/10/21 00:00:01;;;;;;;6.50;5.60;;;14.70;99.90;;;;;;5090146;28;20500;-68
2021/10/21 00:02:28;;;;;;;6.43;5.40;;;14.70;99.90;;;;;;5089493;28;20861;-68
2021/10/21 00:04:55;;;;;;;6.73;5.60;;;14.70;99.90;;;;;;5089776;28;20485;-68
2021/10/21 00:07:21;;;;;;;8.07;6.23;;;14.60;99.90;;;;;;5089145;28;20457;-68
2021/10/21 00:09:49;;;;;;;6.47;5.87;;;14.60;99.90;;;;;;5088586;28;20461;-68
2021/10/21 00:12:17;;;;;;;8.63;6.77;;;14.40;99.90;;;;;;5091741;28;20457;-68
2021/10/21 00:14:44;;;;;;;6.40;5.80;;;14.30;99.90;;;;;;5092903;28;20457;-68
2021/10/21 00:17:10;;;;;;;7.40;5.67;;;14.30;99.90;;;;;;5091469;28;20996;-68
2021/10/21 00:19:37;;;;;;;7.50;5.80;;;14.30;99.90;;;;;;5092703;28;20462;-68
2021/10/21 00:22:04;;;;;;;7.03;6.13;;;14.30;99.90;;;;;;5092664;28;20480;-68
2021/10/21 00:24:31;;;;;;;7.33;6.47;;;14.30;99.90;;;;;;5092567;28;20837;-68
2021/10/21 00:26:59;;;;;;;6.50;5.57;;;14.20;99.90;;;;;;5092422;28;20465;-68
2021/10/21 00:29:25;;;;;;;6.50;5.90;;;14.20;99.90;;;;;;5092530;28;20465;-68
2021/10/21 00:31:52;;;;;;;8.03;6.87;;;14.20;99.90;;;;;;5093062;28;20461;-67
2021/10/21 00:34:19;;;;;;;6.70;6.00;;;14.20;99.90;;;;;;5092235;28;20949;-68
2021/10/21 00:36:46;;;;;;;6.97;6.20;;;14.10;99.90;;;;;;5091938;28;20489;-68
2021/10/21 00:39:13;;;;;;;9.17;6.43;;;14.20;99.90;;;;;;5092173;28;20485;-68
2021/10/21 00:41:40;;;;;;;6.70;6.10;;;14.10;99.90;;;;;;5092283;28;20470;-68
2021/10/21 00:44:11;;;;;;;6.43;5.77;;;14.20;99.90;;;;;;5092077;28;20465;-68
2021/10/21 00:46:38;;;;;;;6.43;5.70;;;14.20;99.90;;;;;;5091794;28;20835;-68
2021/10/21 00:49:06;;;;;;;7.37;5.87;;;14.10;99.90;;;;;;5092186;28;20457;-68
2021/10/21 00:51:33;;;;;;;7.10;6.47;;;14.10;99.90;;;;;;5092032;28;20468;-70
2021/10/21 00:54:00;;;;;;;6.13;5.40;;;14.00;99.90;;;;;;5093253;28;20808;-70
2021/10/21 00:56:27;;;;;;;6.90;5.60;;;14.00;99.90;;;;;;5092520;28;20485;-70
2021/10/21 00:58:54;;;;;;;5.53;5.03;;;14.10;99.90;;;;;;5093297;28;20482;-70
2021/10/21 01:01:24;;;;;;;5.87;5.37;;;14.10;99.90;;;;;;5092251;28;20968;-70
2021/10/21 01:03:51;;;;;;;5.67;5.07;;;14.10;99.90;;;;;;5092661;28;20465;-70
2021/10/21 01:06:19;;;;;;;5.57;4.83;;;14.10;99.90;;;;;;5091775;28;20473;-70
2021/10/21 01:08:46;;;;;;;6.67;5.40;;;14.20;99.90;;;;;;5092220;28;20458;-70
2021/10/21 01:11:14;;;;;;;7.30;5.30;;;14.20;99.90;;;;;;5092383;28;20836;-69
2021/10/21 01:13:41;;;;;;;6.70;5.70;;;14.20;99.90;;;;;;5092281;28;20495;-69
2021/10/21 01:16:10;;;;;;;5.57;5.00;;;14.10;99.90;;;;;;5091519;28;20481;-69
2021/10/21 01:18:39;;;;;;;5.37;4.87;;;14.20;99.90;;;;;;5091354;28;20520;-69
2021/10/21 01:21:09;;;;;;;7.93;6.00;;;14.10;99.90;;;;;;5091914;28;20555;-69
2021/10/21 01:23:37;;;;;;;7.57;6.30;;;14.10;99.90;;;;;;5091306;28;20457;-69
2021/10/21 01:26:07;;;;;;;6.03;5.43;;;14.00;99.90;;;;;;5091058;28;20885;-69
2021/10/21 01:28:33;;;;;;;6.50;5.90;;;14.00;99.90;;;;;;5091333;28;20853;-69
2021/10/21 01:31:00;;;;;;;6.53;5.93;;;14.00;99.90;;;;;;5091470;28;20462;-69
2021/10/21 01:33:27;;;;;;;6.30;5.70;;;14.00;99.90;;;;;;5091143;28;20457;-69
2021/10/21 01:35:53;;;;;;;6.57;5.87;;;14.00;99.90;;;;;;5090634;28;20478;-69
2021/10/21 01:38:22;;;;;;;5.93;4.90;;;13.90;99.90;;;;;;5091305;28;20485;-69
2021/10/21 01:40:48;;;;;;;6.67;5.47;;;13.90;99.90;;;;;;5090979;28;20473;-69
2021/10/21 01:43:15;;;;;;;6.27;5.67;;;13.90;99.90;;;;;;5091215;28;20971;-69
2021/10/21 01:45:42;;;;;;;5.93;5.43;;;13.90;99.90;;;;;;5090649;28;21011;-69
2021/10/21 01:48:09;;;;;;;5.53;5.03;;;13.90;99.90;;;;;;5091238;28;20453;-69
2021/10/21 01:50:36;;;;;;;5.40;4.90;;;13.90;99.90;;;;;;5090865;28;20458;-69
2021/10/21 01:53:03;;;;;;;5.80;5.30;;;13.90;99.90;;;;;;5090920;28;20465;-69
2021/10/21 01:55:32;;;;;;;5.83;5.00;;;13.90;99.90;;;;;;5090756;28;20481;-69
2021/10/21 01:57:58;;;;;;;16.70;6.20;;;14.00;99.90;;;;;;5090298;28;20488;-69
2021/10/21 02:00:26;;;;;;;4.40;4.00;;;14.00;99.90;;;;;;5091129;28;20469;-69
2021/10/21 02:02:53;;;;;;;4.80;4.30;;;14.00;99.90;;;;;;5090986;28;20462;-69
2021/10/21 02:05:20;;;;;;;5.23;4.73;;;14.00;99.90;;;;;;5090911;28;20489;-69
2021/10/21 02:07:48;;;;;;;5.70;4.70;;;14.00;99.90;;;;;;5090373;28;20454;-69
2021/10/21 02:10:17;;;;;;;4.40;4.00;;;14.00;99.90;;;;;;5091114;28;20468;-69
2021/10/21 02:12:45;;;;;;;5.20;4.13;;;14.00;99.90;;;;;;5090693;28;20461;-69
2021/10/21 02:15:12;;;;;;;4.77;4.30;;;14.00;99.90;;;;;;5090489;28;20481;-69
2021/10/21 02:17:39;;;;;;;4.50;4.10;;;14.10;99.90;;;;;;5090120;28;20465;-69
2021/10/21 02:20:07;;;;;;;4.83;4.37;;;14.00;99.90;;;;;;5090834;28;20465;-69
2021/10/21 02:22:34;;;;;;;4.50;4.10;;;14.10;99.90;;;;;;5090845;28;20453;-69
2021/10/21 02:25:01;;;;;;;3.80;3.30;;;14.00;99.90;;;;;;5090441;28;20478;-69
2021/10/21 02:27:28;;;;;;;6.63;4.00;;;14.10;99.90;;;;;;5090239;28;20953;-69
2021/10/21 02:29:56;;;;;;;5.13;3.73;;;14.10;99.90;;;;;;5090298;28;20457;-69
2021/10/21 02:32:22;;;;;;;4.20;3.63;;;14.10;99.90;;;;;;5090714;28;20948;-69
2021/10/21 02:34:49;;;;;;;4.50;3.67;;;14.10;99.90;;;;;;5090549;28;20481;-69
2021/10/21 02:37:16;;;;;;;4.63;3.47;;;14.10;99.90;;;;;;5090255;28;20832;-69
2021/10/21 02:39:43;;;;;;;3.73;3.43;;;14.10;99.90;;;;;;5090364;28;20485;-69
2021/10/21 02:42:09;;;;;;;3.53;3.23;;;14.10;99.90;;;;;;5090588;28;20466;-69
2021/10/21 02:44:36;;;;;;;3.80;3.40;;;14.10;99.90;;;;;;5090399;28;20975;-69
2021/10/21 02:47:04;;;;;;;6.20;3.40;;;14.20;99.90;;;;;;5091132;28;20528;-70
2021/10/21 02:49:31;;;;;;;4.00;3.67;;;14.20;99.90;;;;;;5092045;28;20503;-70
2021/10/21 02:51:58;;;;;;;4.13;3.73;;;14.20;99.90;;;;;;5091190;28;20984;-69
2021/10/21 02:54:25;;;;;;;4.83;4.37;;;14.20;99.90;;;;;;5091412;28;20514;-69
2021/10/21 02:56:52;;;;;;;4.50;4.20;;;14.20;99.90;;;;;;5091384;28;20476;-69
2021/10/21 02:59:19;;;;;;;4.10;3.60;;;14.20;99.90;;;;;;5091413;28;20477;-70
2021/10/21 03:01:45;;;;;;;4.90;3.73;;;14.20;99.90;;;;;;5091034;28;20458;-68
2021/10/21 03:04:14;;;;;;;4.10;3.30;;;14.20;99.90;;;;;;5090855;28;20832;-68
2021/10/21 03:06:40;;;;;;;4.10;3.80;;;14.30;99.90;;;;;;5090871;28;20514;-68
2021/10/21 03:09:07;;;;;;;4.83;3.63;;;14.30;99.90;;;;;;5091340;28;20454;-68
2021/10/21 03:11:34;;;;;;;3.80;3.33;;;14.30;99.90;;;;;;5091126;28;20457;-68
2021/10/21 03:14:01;;;;;;;3.80;3.23;;;14.30;99.90;;;;;;5091169;28;20809;-69
2021/10/21 03:16:30;;;;;;;3.23;2.93;;;14.30;99.90;;;;;;5090315;28;20489;-68
2021/10/21 03:18:56;;;;;;;4.77;3.80;;;14.30;99.90;;;;;;5091225;28;20481;-68
2021/10/21 03:21:24;;;;;;;3.97;3.20;;;14.40;99.90;;;;;;5090753;28;20504;-68
2021/10/21 03:23:51;;;;;;;3.77;3.07;;;14.40;99.90;;;;;;5090293;28;20457;-68
2021/10/21 03:26:18;;;;;;;4.90;3.00;;;14.40;99.90;;;;;;5091205;28;20509;-68
2021/10/21 03:28:45;;;;;;;3.20;2.90;;;14.30;99.90;;;;;;5093817;28;20465;-68
2021/10/21 03:31:11;;;;;;;2.90;2.60;;;14.40;99.90;;;;;;5092732;28;21003;-68
2021/10/21 03:33:38;;;;;;;2.83;2.30;;;14.30;99.90;;;;;;5092433;28;20454;-68
2021/10/21 03:36:05;;;;;;;3.10;2.53;;;14.30;99.90;;;;;;5114620;22;20720;-94
2021/10/21 03:38:34;;;;;;;2.00;1.90;;;14.30;99.90;;;;;;5080195;28;20520;-95
2021/10/21 03:41:01;;;;;;;4.83;2.30;;;14.20;99.90;;;;;;5080949;28;20455;-94
2021/10/21 03:46:08;;;;;;;2.40;2.20;;;14.20;99.90;;;;;;5092219;28;20465;-95
2021/10/21 03:48:35;;;;;;;1.90;1.70;;;14.20;99.90;;;;;;5076067;28;20437;-95
2021/10/21 03:51:02;;;;;;;2.10;1.70;;;14.20;99.90;;;;;;5077066;28;20542;-94
2021/10/21 03:53:29;;;;;;;2.90;1.30;;;14.10;99.90;;;;;;5072273;28;20465;-95
2021/10/21 03:56:36;;;;;;;1.60;1.50;;;14.10;99.90;;;;;;5080020;28;20478;-94
2021/10/21 03:59:04;;;;;;;2.00;1.67;;;14.10;99.90;;;;;;5098446;22;20486;-74
2021/10/21 04:01:31;;;;;;;1.50;1.27;;;14.10;99.90;;;;;;5079452;28;21319;-73
2021/10/21 04:03:58;;;;;;;1.63;1.30;;;14.10;99.90;;;;;;5081797;28;20465;-73
2021/10/21 04:06:24;;;;;;;2.10;1.83;;;14.10;99.90;;;;;;5108286;28;20481;-74
2021/10/21 04:08:51;;;;;;;2.37;1.40;;;14.00;99.90;;;;;;5112734;28;20666;-74
2021/10/21 04:11:18;;;;;;;2.90;1.53;;;14.00;99.90;;;;;;5112033;28;20461;-74
2021/10/21 04:13:44;;;;;;;2.23;1.50;;;14.00;99.90;;;;;;5099314;28;20461;-74
2021/10/21 04:16:13;;;;;;;1.23;1.13;;;13.90;99.90;;;;;;5090633;28;20472;-74
2021/10/21 04:18:39;;;;;;;4.33;1.57;;;13.90;99.90;;;;;;5101267;28;20476;-73
2021/10/21 04:21:06;;;;;;;4.07;1.40;;;13.90;99.90;;;;;;5101389;28;20461;-73
2021/10/21 04:23:33;;;;;;;6.40;1.50;;;13.90;99.90;;;;;;5100939;28;20458;-72
2021/10/21 04:26:00;;;;;;;1.53;1.43;;;13.90;99.90;;;;;;5105308;28;20476;-72
2021/10/21 04:28:26;;;;;;;3.73;1.60;;;13.80;99.90;;;;;;5092600;28;21016;-72
2021/10/21 04:30:53;;;;;;;1.90;1.37;;;13.80;99.90;;;;;;5096306;28;20454;-71
2021/10/21 04:33:21;;;;;;;2.27;1.50;;;13.70;99.90;;;;;;5091907;28;20458;-71
2021/10/21 04:35:48;;;;;;;2.80;0.90;;;13.70;99.90;;;;;;5091381;28;20567;-71
2021/10/21 04:38:14;;;;;;;2.40;0.97;;;13.70;99.90;;;;;;5091575;28;20472;-72
2021/10/21 04:40:41;;;;;;;1.70;1.30;;;13.70;99.90;;;;;;5091944;28;20499;-71
2021/10/21 04:43:08;;;;;;;3.53;1.40;;;13.60;99.90;;;;;;5091645;28;20468;-71
2021/10/21 04:45:35;;;;;;;2.53;1.30;;;13.60;99.90;;;;;;5091744;28;20500;-71
2021/10/21 04:48:01;;;;;;;4.30;1.40;;;13.50;99.90;;;;;;5090538;28;20461;-71
2021/10/21 04:50:29;;;;;;;7.97;1.60;;;13.50;99.90;;;;;;5091771;28;20481;-69
2021/10/21 04:52:56;;;;;;;1.30;1.00;;;13.50;99.90;;;;;;5091182;28;20460;-70
2021/10/21 04:55:24;;;;;;;2.43;1.20;;;13.50;99.90;;;;;;5091511;28;21011;-70
2021/10/21 04:57:52;;;;;;;1.60;1.17;;;13.40;99.90;;;;;;5090670;28;20975;-71
2021/10/21 05:00:21;;;;;;;1.73;1.03;;;13.30;99.90;;;;;;5093315;28;20470;-71
2021/10/21 05:02:47;;;;;;;1.40;1.10;;;13.20;99.90;;;;;;5094152;28;20465;-71
2021/10/21 05:05:14;;;;;;;6.80;1.70;;;13.20;99.90;;;;;;5090976;28;20477;-71
2021/10/21 05:07:42;;;;;;;3.90;1.27;;;13.20;99.90;;;;;;5091034;28;20862;-70
2021/10/21 05:10:09;;;;;;;3.05;1.70;;;13.10;99.90;;;;;;5090880;28;20482;-71
2021/10/21 05:12:36;;;;;;;3.08;1.40;;;13.10;99.90;;;;;;5091476;28;20588;-71
2021/10/21 05:15:03;;;;;;;4.00;1.40;;;13.10;99.90;;;;;;5096431;28;20220;-71
2021/10/21 05:17:30;;;;;;;2.80;1.60;;;13.00;99.90;;;;;;5101320;28;20453;-71
2021/10/21 05:19:57;;;;;;;1.77;1.33;;;13.00;99.90;;;;;;5098951;28;20949;-71
2021/10/21 05:22:23;;;;;;;3.53;1.37;;;13.00;99.90;;;;;;5104910;28;20452;-71
2021/10/21 05:24:52;;;;;;;4.32;1.10;;;13.00;99.90;;;;;;5102759;28;20473;-71
2021/10/21 05:27:18;;;;;;;2.30;1.65;;;13.00;99.90;;;;;;5099046;28;20203;-70
2021/10/21 05:29:45;;;;;;;4.70;1.00;;;12.90;99.90;;;;;;5101347;28;20211;-71
2021/10/21 05:32:12;;;;;;;4.65;1.83;;;12.90;99.90;;;;;;5100624;28;20682;-71
2021/10/21 05:34:40;;;;;;;3.80;1.40;;;12.90;99.90;;;;;;5099783;28;20194;-72
2021/10/21 05:37:07;;;;;;;2.60;1.50;;;12.90;99.90;;;;;;5100258;28;20949;-70
2021/10/21 05:39:34;;;;;;;3.97;1.43;;;12.80;99.90;;;;;;5097058;28;20881;-71
2021/10/21 05:42:02;;;;;;;5.53;1.73;;;12.80;99.90;;;;;;5108979;28;20453;-72
2021/10/21 05:44:29;;;;;;;4.33;1.30;;;12.80;99.90;;;;;;5110765;28;20456;-72
2021/10/21 05:46:56;;;;;;;6.40;1.37;;;12.70;99.90;;;;;;5110350;28;20452;-70
2021/10/21 05:49:23;;;;;;;6.97;1.53;;;12.70;99.90;;;;;;5110100;28;20520;-71
2021/10/21 05:51:50;;;;;;;4.07;1.40;;;12.70;99.90;;;;;;5111072;28;20467;-71
2021/10/21 05:54:16;;;;;;;5.17;1.77;;;12.70;99.90;;;;;;5110692;28;20206;-70
2021/10/21 05:56:44;;;;;;;6.60;1.60;;;12.70;99.90;;;;;;5110291;28;21010;-71
2021/10/21 05:59:12;;;;;;;4.35;1.77;;;12.70;99.90;;;;;;5110579;28;20468;-71
2021/10/21 06:01:39;;;;;;;3.28;1.75;;;12.60;99.90;;;;;;5110776;28;20206;-71
2021/10/21 06:04:06;;;;;;;6.28;1.70;;;12.60;99.90;;;;;;5110608;28;20581;-71
2021/10/21 06:06:36;;;;;;;5.73;2.73;;;12.60;99.90;;;;;;5110023;28;20253;-71
2021/10/21 06:09:03;;;;;;;3.00;1.53;;;12.60;99.90;;;;;;5110451;28;20912;-69
2021/10/21 06:11:30;;;;;;;7.13;1.43;;;12.60;99.90;;;;;;5110909;28;20865;-71
2021/10/21 06:13:58;;;;;;;2.37;1.40;;;12.60;99.90;;;;;;5110003;28;20981;-71
2021/10/21 06:16:26;;;;;;;2.60;1.33;;;12.50;99.90;;;;;;5110369;28;20480;-71
2021/10/21 06:18:53;;;;;;;3.33;1.25;;;12.50;99.90;;;;;;5110389;28;20630;-71
2021/10/21 06:21:22;;;;;;;6.22;1.50;;;12.40;99.90;;;;;;5110860;28;20203;-71
2021/10/21 06:23:50;;;;;;;6.63;1.88;;;12.40;99.90;;;;;;5110357;28;20222;-71
2021/10/21 06:26:17;;;;;;;5.15;2.00;;;12.40;99.90;;;;;;5110153;28;20222;-71
2021/10/21 06:28:46;;;;;;;3.15;1.90;;;12.40;99.90;;;;;;5110643;28;20203;-71
2021/10/21 06:31:13;;;;;;;3.08;1.33;;;12.40;99.90;;;;;;5110266;28;20203;-72
2021/10/21 06:33:42;;;;;;;4.00;1.77;;;12.40;99.90;;;;;;5110646;28;20217;-71
2021/10/21 06:36:09;;;;;;;6.80;1.42;;;12.40;99.90;;;;;;5109409;28;20227;-71
2021/10/21 06:38:35;;;;;;;3.30;1.27;;;12.40;99.90;;;;;;5110738;28;20543;-72
2021/10/21 06:41:02;;;;;;;5.88;1.70;;;12.40;99.90;;;;;;5109995;28;20203;-71
2021/10/21 06:43:29;;;;;;;4.35;1.60;;;12.40;99.90;;;;;;5110362;28;20702;-72
2021/10/21 06:45:55;;;;;;;4.65;1.90;;;12.40;99.90;;;;;;5109816;28;20219;-68
2021/10/21 06:48:22;;;;;;;10.13;1.80;;;12.40;99.90;;;;;;5110220;28;20203;-71
2021/10/21 06:50:50;;;;;;;10.40;1.95;;;12.40;99.90;;;;;;5110656;28;20241;-71
2021/10/21 06:53:18;;;;;;;7.95;1.50;;;12.50;99.90;;;;;;5109813;28;20214;-71
2021/10/21 06:55:45;;;;;;;3.83;1.30;;;12.50;99.90;;;;;;5109899;28;20223;-71
2021/10/21 06:58:12;;;;;;;7.63;1.92;;;12.50;99.90;;;;;;5109750;28;20211;-69
2021/10/21 07:00:40;;;;;;;4.32;1.65;;;12.60;99.90;;;;;;5107054;28;20671;-71
2021/10/21 07:03:08;;;;;;;3.35;1.35;;;12.70;99.90;;;;;;5091765;28;20204;-70
2021/10/21 07:05:39;;;;;;;4.88;1.35;;;12.70;99.90;;;;;;5093439;28;20725;-70
2021/10/21 07:08:07;;;;;;;7.20;1.67;;;12.90;99.90;;;;;;5093491;28;20742;-71
2021/10/21 07:10:34;;;;;;;5.93;2.20;;;13.10;99.90;;;;;;5093326;28;20224;-69
2021/10/21 07:13:03;;;;;;;4.28;1.45;;;13.20;99.90;;;;;;5093286;28;20200;-70
2021/10/21 07:15:31;;;;;;;6.68;1.75;;;13.40;99.90;;;;;;5093463;28;20242;-71
2021/10/21 07:17:57;;;;;;;5.63;1.73;;;13.40;99.90;;;;;;5092651;28;20382;-71
2021/10/21 07:20:24;;;;;;;2.70;1.37;;;13.60;99.90;;;;;;5093567;28;20460;-71
2021/10/21 07:22:51;;;;;;;7.43;1.57;;;13.70;99.90;;;;;;5093287;28;20839;-70
2021/10/21 07:25:19;;;;;;;5.50;1.70;;;13.80;99.90;;;;;;5093477;28;20515;-70
2021/10/21 07:27:46;;;;;;;3.83;1.53;;;13.80;99.90;;;;;;5093056;28;20461;-71
2021/10/21 07:30:14;;;;;;;16.00;2.03;;;13.90;99.90;;;;;;5093039;28;20477;-71
2021/10/21 07:32:41;;;;;;;4.90;1.80;;;13.90;99.90;;;;;;5093276;28;20671;-71
2021/10/21 07:35:09;;;;;;;5.37;1.60;;;13.90;99.90;;;;;;5092733;28;20486;-71
2021/10/21 07:37:36;;;;;;;5.30;1.80;;;13.90;99.90;;;;;;5092916;28;20547;-71
2021/10/21 07:40:04;;;;;;;6.30;1.63;;;13.90;99.90;;;;;;5092545;28;20540;-71
2021/10/21 07:42:33;;;;;;;5.17;1.63;;;13.80;99.90;;;;;;5093269;28;20840;-71
2021/10/21 07:45:01;;;;;;;5.43;1.50;;;13.70;99.90;;;;;;5092483;28;20481;-71
2021/10/21 07:47:28;;;;;;;3.50;1.63;;;13.60;99.90;;;;;;5092486;28;20489;-72
2021/10/21 07:49:55;;;;;;;2.50;1.33;;;13.60;99.90;;;;;;5092933;28;20478;-71
2021/10/21 07:52:23;;;;;;;6.43;1.77;;;13.50;99.90;;;;;;5092770;28;20565;-72
2021/10/21 07:54:50;;;;;;;2.03;1.10;;;13.50;99.90;;;;;;5113241;28;20481;-71
2021/10/21 07:57:20;;;;;;;4.77;1.20;;;13.50;99.90;;;;;;5112386;28;20461;-69
2021/10/21 07:59:48;;;;;;;3.20;1.33;;;13.50;99.90;;;;;;5113271;28;20509;-71
2021/10/21 08:02:16;;;;;;;3.07;1.20;;;13.80;99.90;;;;;;5112756;28;20461;-70
2021/10/21 08:04:43;;;;;;;6.37;1.57;;;14.10;99.90;;;;;;5113333;28;21085;-71
2021/10/21 08:07:10;;;;;;;4.53;1.20;;;14.40;99.90;;;;;;5112425;28;20817;-71
2021/10/21 08:09:36;;;;;;;3.90;1.10;;;14.70;99.90;;;;;;5112714;28;20491;-71
2021/10/21 08:12:07;;;;;;;2.00;1.03;;;14.90;99.90;;;;;;5112045;28;20464;-71
2021/10/21 08:14:34;;;;;;;4.07;1.60;;;14.90;99.90;;;;;;5112775;28;20517;-70
2021/10/21 08:17:02;;;;;;;5.17;1.00;;;14.70;99.90;;;;;;5112220;28;20461;-71
2021/10/21 08:19:29;;;;;;;7.07;1.70;;;14.40;99.90;;;;;;5112675;28;21055;-70
2021/10/21 08:21:57;;;;;;;5.47;1.27;;;14.40;99.90;;;;;;5112591;28;20500;-71
2021/10/21 08:24:24;;;;;;;2.73;1.40;;;14.60;99.90;;;;;;5112708;28;20467;-71
2021/10/21 08:26:52;;;;;;;3.83;1.00;;;14.70;99.90;;;;;;5111869;28;20827;-70
2021/10/21 08:29:23;;;;;;;2.73;1.20;;;15.00;99.90;;;;;;5112522;28;20555;-69
2021/10/21 08:31:51;;;;;;;4.57;1.50;;;15.40;99.90;;;;;;5112429;28;20821;-70
2021/10/21 08:34:19;;;;;;;1.97;1.10;;;15.50;99.90;;;;;;5112207;28;20543;-70
2021/10/21 08:36:45;;;;;;;2.50;1.20;;;15.40;99.90;;;;;;5111714;28;20485;-71
2021/10/21 08:39:12;;;;;;;11.30;1.70;;;15.40;99.90;;;;;;5112083;28;20461;-71
2021/10/21 08:41:42;;;;;;;2.30;0.90;;;15.10;99.90;;;;;;5112469;28;20464;-70
2021/10/21 08:44:09;;;;;;;1.93;1.03;;;14.80;99.90;;;;;;5111909;28;20528;-70
2021/10/21 08:46:37;;;;;;;1.97;1.10;;;14.60;99.90;;;;;;5111863;28;20484;-70
2021/10/21 08:49:04;;;;;;;2.80;1.27;;;14.50;99.90;;;;;;5112146;28;20500;-71
2021/10/21 08:51:34;;;;;;;5.00;1.27;;;14.60;99.90;;;;;;5112168;28;20484;-70
2021/10/21 08:54:03;;;;;;;2.10;1.33;;;14.50;99.90;;;;;;5111601;28;20689;-69
2021/10/21 08:56:30;;;;;;;2.77;1.13;;;14.30;99.90;;;;;;5105039;28;20860;-71
2021/10/21 08:58:58;;;;;;;3.00;2.60;;;14.10;99.90;;;;;;5108432;28;20487;-70
2021/10/21 09:01:33;;;;;;;2.57;1.20;;;13.70;99.90;;;;;;5100763;28;20587;-70
2021/10/21 09:04:18;;;;;;;3.20;1.13;;;13.50;99.90;;;;;;5110885;28;20456;-70
2021/10/21 09:09:33;;;;;;;2.37;1.20;;;14.00;99.90;;;;;;5093662;28;20452;-71
2021/10/21 09:12:05;;;;;;;1.30;0.90;;;14.20;99.90;;;;;;5111454;28;20488;-70
2021/10/21 09:14:36;;;;;;;1.63;1.00;;;14.60;99.90;;;;;;5111617;28;20556;-71
2021/10/21 09:17:04;;;;;;;1.73;0.93;;;14.70;99.90;;;;;;5110668;28;20460;-70
2021/10/21 09:19:31;;;;;;;1.77;0.90;;;14.90;99.90;;;;;;5112053;28;20456;-71
2021/10/21 09:22:00;;;;;;;3.33;1.10;;;15.00;99.90;;;;;;5111367;28;20468;-69
2021/10/21 09:24:29;;;;;;;3.40;1.20;;;15.00;99.90;;;;;;5111367;28;20467;-69
2021/10/21 09:27:04;;;;;;;2.20;1.00;;;15.20;99.90;;;;;;5110935;28;20456;-70
2021/10/21 09:29:32;;;;;;;1.60;1.10;;;15.40;99.90;;;;;;5090856;28;20508;-71
2021/10/21 09:32:13;;;;;;;1.43;1.00;;;15.50;99.90;;;;;;5090714;28;21031;-72
2021/10/21 09:34:45;;;;;;;6.40;1.30;;;15.60;99.90;;;;;;5090740;28;20468;-71
2021/10/21 09:37:15;;;;;;;1.83;1.00;;;15.60;99.90;;;;;;5163050;22;20485;-73
2021/10/21 09:39:48;;;;;;;2.23;1.17;;;15.60;99.90;;;;;;5089858;28;20465;-73
2021/10/21 09:42:16;;;;;;;1.70;0.90;;;15.90;99.90;;;;;;5090871;28;20506;-73
2021/10/21 09:44:44;;;;;;;1.47;0.80;;;15.80;99.90;;;;;;5091524;28;21093;-73
2021/10/21 09:47:16;;;;;;;1.83;1.20;;;15.40;99.90;;;;;;5090450;28;20803;-73
2021/10/21 09:49:44;;;;;;;2.17;1.10;;;15.10;99.90;;;;;;5090524;28;20464;-73
2021/10/21 09:52:18;;;;;;;1.27;0.87;;;14.70;99.90;;;;;;5090518;28;20802;-73
2021/10/21 09:54:45;;;;;;;1.10;0.83;;;14.40;99.90;;;;;;5090920;28;20821;-73
2021/10/21 09:57:17;;;;;;;1.10;0.80;;;14.00;99.90;;;;;;5090043;28;20560;-72
2021/10/21 09:59:45;;;;;;;1.10;0.90;;;13.80;99.90;;;;;;5090413;28;20462;-73
2021/10/21 10:02:15;;;;;;;1.20;0.80;;;13.40;99.90;;;;;;5090534;28;20469;-72
2021/10/21 10:04:46;;;;;;;3.63;0.90;;;13.00;99.90;;;;;;5090321;28;20469;-73
2021/10/21 10:07:14;;;;;;;1.00;0.70;;;12.70;99.90;;;;;;5090619;28;20457;-72
2021/10/21 10:09:42;;;;;;;1.75;1.00;;;12.70;99.90;;;;;;5090022;28;20987;-73
2021/10/21 10:12:09;;;;;;;1.30;1.02;;;13.20;99.90;;;;;;5090785;28;20227;-73
2021/10/21 10:14:43;;;;;;;6.20;0.80;;;13.80;99.90;;;;;;5089792;28;20211;-73
2021/10/21 10:17:10;;;;;;;3.67;1.30;;;14.40;99.90;;;;;;5089981;28;20458;-73
2021/10/21 10:19:41;;;;;;;1.10;0.80;;;15.10;99.90;;;;;;5089756;28;20458;-72
2021/10/21 10:22:08;;;;;;;1.70;0.77;;;15.50;99.90;;;;;;5090243;28;20458;-73
2021/10/21 10:24:38;;;;;;;1.97;0.80;;;15.70;99.90;;;;;;5070370;28;20469;-72
2021/10/21 10:27:20;;;;;;;2.03;0.90;;;16.00;99.90;;;;;;5068243;28;20466;-73
2021/10/21 10:29:48;;;;;;;1.77;0.97;;;16.30;99.90;;;;;;5070075;28;20826;-72
2021/10/21 10:32:48;;;;;;;1.33;0.97;;;16.80;99.90;;;;;;5070292;28;20483;-72
2021/10/21 10:35:30;;;;;;;1.27;0.93;;;17.40;99.90;;;;;;4990476;28;20875;-72
2021/10/21 10:37:58;;;;;;;1.00;0.80;;;17.60;99.90;;;;;;4991999;28;20476;-73
2021/10/21 10:40:39;;;;;;;1.33;0.90;;;17.90;99.90;;;;;;5047540;28;20464;-72
2021/10/21 10:43:08;;;;;;;1.20;0.90;;;18.20;99.80;;;;;;5094148;28;20477;-72
2021/10/21 10:45:57;;;;;;;1.63;1.00;;;18.20;99.90;;;;;;5093973;28;21007;-72
2021/10/21 10:48:53;;;;;;;2.07;1.10;;;18.30;99.60;;;;;;5083123;28;20453;-72
2021/10/21 10:51:21;;;;;;;1.93;1.00;;;18.60;99.90;;;;;;5092073;28;20484;-72
2021/10/21 10:53:53;;;;;;;3.50;1.17;;;18.70;98.90;;;;;;5051551;28;20545;-72
2021/10/21 10:56:52;;;;;;;2.00;0.93;;;18.80;99.00;;;;;;5052962;28;20481;-72
2021/10/21 10:59:32;;;;;;;1.23;0.87;;;18.80;99.00;;;;;;5053766;28;20455;-72
2021/10/21 11:02:01;;;;;;;2.37;1.10;;;18.60;97.90;;;;;;5061530;28;20456;-72
2021/10/21 11:04:58;;;;;;;4.00;1.57;;;18.40;98.50;;;;;;5073278;28;20455;-72
2021/10/21 11:07:27;;;;;;;2.13;0.90;;;18.20;97.60;;;;;;5074188;28;20992;-72
2021/10/21 11:09:55;;;;;;;4.00;1.20;;;18.10;98.40;;;;;;5076958;28;20478;-72
2021/10/21 11:12:24;;;;;;;2.03;0.97;;;18.30;97.80;;;;;;5078653;28;20513;-72
2021/10/21 11:14:56;;;;;;;7.20;1.50;;;18.60;98.70;;;;;;5092054;28;20572;-72
2021/10/21 11:17:42;;;;;;;2.17;1.03;;;18.90;97.40;;;;;;5088177;28;20469;-72
2021/10/21 11:20:38;;;;;;;1.77;0.90;;;18.90;96.20;;;;;;5092375;28;20493;-72
2021/10/21 11:23:06;;;;;;;1.43;1.30;;;19.30;97.30;;;;;;5084594;28;20454;-73
2021/10/21 11:25:34;;;;;;;1.97;1.10;;;19.80;97.10;;;;;;5073034;28;20833;-72
2021/10/21 11:28:01;;;;;;;3.50;1.40;;;20.10;96.80;;;;;;5072146;28;20694;-72
2021/10/21 11:30:31;;;;;;;2.57;1.30;;;20.20;95.90;;;;;;5071928;28;20454;-72
2021/10/21 11:33:00;;;;;;;1.80;1.00;;;20.20;94.30;;;;;;5072650;28;20918;-72
2021/10/21 11:35:28;;;;;;;2.50;1.07;;;19.90;94.10;;;;;;5071270;28;20485;-72
2021/10/21 11:37:56;;;;;;;1.43;1.10;;;19.40;94.30;;;;;;5072100;28;20470;-72
2021/10/21 11:40:26;;;;;;;1.33;0.97;;;19.20;95.10;;;;;;5072283;28;20454;-71
2021/10/21 11:43:41;;;;;;;2.43;1.00;;;19.30;95.30;;;;;;5071904;28;20466;-72
2021/10/21 11:46:11;;;;;;;2.00;1.20;;;19.20;94.00;;;;;;5074024;28;20477;-72
2021/10/21 11:48:40;;;;;;;1.90;1.07;;;18.80;95.40;;;;;;5089537;28;20461;-73
2021/10/21 11:51:09;;;;;;;3.33;1.23;;;18.70;95.50;;;;;;5091668;28;20485;-73
2021/10/21 11:53:37;;;;;;;4.90;1.33;;;18.90;95.90;;;;;;5082976;28;20469;-74
2021/10/21 11:56:04;;;;;;;0.90;0.80;;;19.10;95.30;;;;;;5070883;28;20561;-72
2021/10/21 11:58:34;;;;;;;3.17;1.27;;;19.30;95.30;;;;;;5071338;28;20989;-73
2021/10/21 12:01:03;;;;;;;1.67;1.27;;;19.40;95.40;;;;;;5071344;28;20508;-74
2021/10/21 12:03:33;;;;;;;1.60;1.10;;;19.20;95.20;;;;;;5070956;28;20497;-73
2021/10/21 12:06:00;;;;;;;1.63;1.03;;;19.10;96.40;;;;;;5070540;28;20478;-73
2021/10/21 12:08:27;;;;;;;3.07;1.17;;;19.10;96.50;;;;;;5071295;28;20485;-73
2021/10/21 12:10:59;;;;;;;3.93;1.50;;;19.10;95.70;;;;;;5071424;28;20514;-74
2021/10/21 12:13:28;;;;;;;2.70;1.20;;;19.00;95.60;;;;;;5070726;28;20471;-73
2021/10/21 12:15:58;;;;;;;1.90;0.97;;;19.20;96.40;;;;;;5070416;28;20634;-73
2021/10/21 12:18:27;;;;;;;1.50;1.00;;;19.10;95.60;;;;;;5070210;28;20469;-73
2021/10/21 12:20:58;;;;;;;2.30;1.30;;;19.10;95.80;;;;;;5071003;28;20541;-74
2021/10/21 12:23:28;;;;;;;1.87;1.00;;;19.00;95.40;;;;;;5069491;28;20481;-73
2021/10/21 12:25:56;;;;;;;2.33;1.57;;;19.20;96.10;;;;;;5067455;28;20471;-73
2021/10/21 12:28:37;;;;;;;1.90;1.30;;;19.30;94.90;;;;;;5067085;28;20455;-73
2021/10/21 12:31:16;;;;;;;1.40;1.10;;;19.30;95.60;;;;;;5069748;28;20479;-73
2021/10/21 12:33:51;;;;;;;3.50;1.40;;;19.20;95.40;;;;;;5069901;28;20826;-73
2021/10/21 12:36:22;;;;;;;1.50;1.10;;;19.00;95.60;;;;;;5069685;28;20478;-73
2021/10/21 12:38:52;;;;;;;3.17;1.30;;;18.80;95.10;;;;;;5070630;28;20555;-73
2021/10/21 12:41:20;;;;;;;1.63;1.10;;;18.30;95.40;;;;;;5070176;28;20838;-73
2021/10/21 12:44:00;;;;;;;1.50;1.00;;;18.30;96.70;;;;;;5069869;28;20512;-73
2021/10/21 12:46:27;;;;;;;1.50;1.03;;;18.20;95.60;;;;;;5069141;28;20478;-73
2021/10/21 12:49:09;;;;;;;2.17;1.00;;;18.30;96.70;;;;;;5070646;28;20486;-73
2021/10/21 12:51:38;;;;;;;2.27;1.30;;;18.40;96.50;;;;;;5070141;28;20583;-74
2021/10/21 12:54:05;;;;;;;2.13;1.17;;;18.70;97.00;;;;;;5069413;28;20954;-73
2021/10/21 12:56:33;;;;;;;2.50;1.40;;;18.80;96.30;;;;;;5069018;28;20478;-73
2021/10/21 12:59:02;;;;;;;2.33;1.30;;;18.60;95.70;;;;;;5066186;28;20455;-73